Time;durP1;ratioP1;P1;durP2;ratioP2;P2;SDS_P1;SDS_P2;PMS_P1;PMS_P2;Temp;Humidity;BMP_temperature;BMP_pressure;BME280_temperature;BME280_humidity;BME280_pressure;Samples;Min_cycle;Max_cycle;Signal;HPM_P1;HPM_P2
2022/11/08 00:02:16;;;;;;;47.73;28.60;;;;;;;11.93;100.00;99919.00;5072148;28;20195;-61
2022/11/08 00:04:43;;;;;;;44.90;27.97;;;;;;;11.92;100.00;99922.47;5071964;28;20207;-60
2022/11/08 00:15:24;;;;;;;39.27;25.87;;;;;;;11.69;100.00;99919.63;5071802;28;20194;-62
2022/11/08 00:17:52;;;;;;;41.27;26.23;;;;;;;11.67;100.00;99918.81;5071597;28;20216;-62
2022/11/08 00:20:19;;;;;;;41.00;26.27;;;;;;;11.63;100.00;99916.28;5071843;28;20246;-56
2022/11/08 00:22:46;;;;;;;48.53;27.47;;;;;;;11.64;100.00;99922.34;5071871;28;20199;-58
2022/11/08 00:25:13;;;;;;;44.93;26.37;;;;;;;11.60;100.00;99918.13;5071506;28;20204;-58
2022/11/08 00:27:40;;;;;;;41.10;25.83;;;;;;;11.59;100.00;99925.06;5071296;28;20196;-57
2022/11/08 00:30:07;;;;;;;40.97;27.00;;;;;;;11.56;100.00;99921.69;5071477;28;20233;-57
2022/11/08 00:32:34;;;;;;;37.37;25.80;;;;;;;11.57;100.00;99919.06;5071298;28;20193;-57
2022/11/08 00:35:03;;;;;;;42.13;25.90;;;;;;;11.69;100.00;99914.41;5070753;28;20199;-57
2022/11/08 00:37:29;;;;;;;41.27;27.03;;;;;;;11.78;100.00;99919.41;5071466;28;20210;-57
2022/11/08 00:39:56;;;;;;;41.03;27.40;;;;;;;11.76;100.00;99911.63;5071372;28;20557;-60
2022/11/08 00:42:23;;;;;;;44.03;29.83;;;;;;;11.74;100.00;99912.56;5071307;28;20566;-60
2022/11/08 00:44:50;;;;;;;47.43;30.57;;;;;;;11.68;100.00;99913.56;5071396;28;20208;-60
2022/11/08 00:47:17;;;;;;;45.43;30.03;;;;;;;11.60;100.00;99905.97;5071114;28;20206;-61
2022/11/08 00:49:44;;;;;;;52.57;31.30;;;;;;;11.60;100.00;99905.97;5071052;28;20223;-61
2022/11/08 00:52:12;;;;;;;52.67;31.87;;;;;;;11.59;100.00;99901.69;5071400;28;20222;-57
2022/11/08 00:54:39;;;;;;;48.10;30.70;;;;;;;11.57;100.00;99906.06;5071120;28;20204;-57
2022/11/08 00:57:06;;;;;;;53.80;32.47;;;;;;;11.61;100.00;99896.44;5070994;28;20218;-58
2022/11/08 00:59:33;;;;;;;52.83;32.47;;;;;;;11.63;100.00;99900.69;5070787;28;20502;-58
2022/11/08 01:01:59;;;;;;;47.43;31.80;;;;;;;11.61;100.00;99896.44;5070909;28;20211;-57
2022/11/08 01:04:26;;;;;;;50.97;33.37;;;;;;;11.59;100.00;99888.69;5070997;28;20686;-58
2022/11/08 01:06:53;;;;;;;51.30;32.40;;;;;;;11.58;100.00;99884.38;5071043;28;20592;-57
2022/11/08 01:09:21;;;;;;;51.87;32.83;;;;;;;11.60;100.00;99881.72;5070819;28;20223;-57
2022/11/08 01:11:48;;;;;;;59.63;34.77;;;;;;;11.63;100.00;99889.41;5070654;28;20202;-58
2022/11/08 01:14:15;;;;;;;50.10;33.20;;;;;;;11.71;100.00;99873.63;5070392;28;20191;-57
2022/11/08 01:16:44;;;;;;;57.00;34.47;;;;;;;11.71;100.00;99863.22;5070674;28;20196;-61
2022/11/08 01:19:11;;;;;;;58.43;33.67;;;;;;;11.72;100.00;99868.41;5070447;28;20258;-59
2022/11/08 01:21:38;;;;;;;50.90;33.70;;;;;;;11.76;100.00;99863.97;5069415;28;20628;-61
2022/11/08 01:24:06;;;;;;;51.47;33.90;;;;;;;11.79;100.00;99861.28;5070479;28;20225;-61
2022/11/08 01:26:34;;;;;;;56.97;33.73;;;;;;;11.82;100.00;99858.63;5070253;28;20667;-60
2022/11/08 01:29:01;;;;;;;53.83;32.30;;;;;;;11.89;100.00;99860.13;5070063;28;20222;-61
2022/11/08 01:31:31;;;;;;;52.20;31.70;;;;;;;12.05;100.00;99865.75;5070489;28;20268;-61
2022/11/08 01:34:00;;;;;;;60.00;32.57;;;;;;;12.12;100.00;99856.88;5070168;28;20199;-60
2022/11/08 01:36:28;;;;;;;52.33;31.77;;;;;;;12.16;100.00;99854.13;5069965;28;20672;-60
2022/11/08 01:38:57;;;;;;;51.37;31.30;;;;;;;12.12;100.00;99851.66;5070247;28;20283;-61
2022/11/08 01:41:26;;;;;;;49.00;30.33;;;;;;;12.16;100.00;99854.13;5070396;28;20200;-61
2022/11/08 01:43:55;;;;;;;48.27;31.17;;;;;;;12.15;100.00;99851.56;5070177;28;20210;-60
2022/11/08 01:46:36;;;;;;;50.87;30.40;;;;;;;12.22;100.00;99843.53;5070348;28;20314;-60
2022/11/08 01:49:31;;;;;;;47.83;30.70;;;;;;;12.33;100.00;99836.25;5069932;28;20227;-61
2022/11/08 01:52:19;;;;;;;49.87;30.57;;;;;;;12.36;100.00;99840.50;5062728;28;20231;-60
2022/11/08 01:54:56;;;;;;;54.20;31.60;;;;;;;12.33;100.00;99846.66;5069890;28;20202;-60
2022/11/08 01:57:28;;;;;;;46.00;29.23;;;;;;;12.35;100.00;99842.25;5069895;28;20588;-57
2022/11/08 02:00:00;;;;;;;57.37;30.30;;;;;;;12.22;100.00;99840.94;5070044;28;20188;-57
2022/11/08 02:02:27;;;;;;;51.37;29.53;;;;;;;12.19;100.00;99843.63;5070188;28;20636;-57
2022/11/08 02:04:55;;;;;;;48.23;30.47;;;;;;;12.13;100.00;99829.94;5070082;28;20681;-57
2022/11/08 02:07:22;;;;;;;46.53;29.37;;;;;;;12.20;100.00;99847.94;5069619;28;20206;-57
2022/11/08 02:09:49;;;;;;;51.03;30.97;;;;;;;12.22;100.00;99847.88;5069682;28;20230;-58
2022/11/08 02:12:20;;;;;;;51.57;30.67;;;;;;;12.17;100.00;99845.44;5070116;28;20206;-58
2022/11/08 02:14:47;;;;;;;52.27;32.00;;;;;;;12.23;100.00;99841.78;5069571;28;20198;-59
2022/11/08 02:17:16;;;;;;;47.37;31.90;;;;;;;12.13;100.00;99836.00;5069472;28;20196;-60
2022/11/08 02:19:45;;;;;;;50.80;32.03;;;;;;;12.28;100.00;99852.91;5069473;28;20665;-60
2022/11/08 02:22:26;;;;;;;58.10;33.50;;;;;;;12.21;100.00;99847.03;5069495;28;20284;-58
2022/11/08 02:24:57;;;;;;;55.20;33.27;;;;;;;12.25;100.00;99855.59;5069560;28;20196;-58
2022/11/08 02:27:24;;;;;;;51.60;33.97;;;;;;;12.29;100.00;99852.88;5069502;28;20231;-57
2022/11/08 02:29:53;;;;;;;51.37;33.43;;;;;;;12.21;100.00;99851.38;5069420;28;20230;-58
2022/11/08 02:32:20;;;;;;;55.33;33.07;;;;;;;12.13;100.00;99840.34;5069305;28;20289;-58
2022/11/08 02:34:51;;;;;;;50.00;32.60;;;;;;;12.31;100.00;99860.63;5069378;28;20198;-58
2022/11/08 02:37:20;;;;;;;54.50;33.03;;;;;;;12.22;100.00;99842.69;5069257;28;20199;-59
2022/11/08 02:39:47;;;;;;;49.33;32.63;;;;;;;12.33;100.00;99857.06;5069311;28;20196;-58
2022/11/08 02:42:17;;;;;;;54.87;32.47;;;;;;;12.36;100.00;99862.19;5069335;28;20203;-60
2022/11/08 02:44:45;;;;;;;52.63;32.17;;;;;;;12.31;100.00;99855.41;5069231;28;20245;-61
2022/11/08 02:47:11;;;;;;;43.07;30.60;;;;;;;12.45;100.00;99868.00;5069264;28;20199;-60
2022/11/08 02:49:39;;;;;;;48.23;32.33;;;;;;;12.50;100.00;99868.72;5069172;28;20226;-61
2022/11/08 02:52:05;;;;;;;47.30;32.70;;;;;;;12.56;100.00;99860.72;5069103;28;20199;-57
2022/11/08 02:54:33;;;;;;;53.20;33.00;;;;;;;12.51;100.00;99870.44;5069147;28;20590;-57
2022/11/08 02:57:00;;;;;;;57.60;32.70;;;;;;;12.34;100.00;99845.75;5069401;28;20204;-58
2022/11/08 02:59:28;;;;;;;57.73;34.83;;;;;;;12.42;100.00;99858.53;5069169;28;20207;-61
2022/11/08 03:01:55;;;;;;;55.77;34.13;;;;;;;12.34;100.00;99856.19;5069257;28;20196;-57
2022/11/08 03:04:22;;;;;;;56.80;35.93;;;;;;;12.34;100.00;99860.53;5069248;28;20647;-57
2022/11/08 03:06:49;;;;;;;61.20;36.87;;;;;;;12.33;100.00;99858.81;5069042;28;20192;-60
2022/11/08 03:09:15;;;;;;;58.80;35.90;;;;;;;12.33;100.00;99864.03;5068934;28;20220;-60
2022/11/08 03:11:42;;;;;;;55.33;37.63;;;;;;;12.31;100.00;99856.25;5069437;28;20724;-59
2022/11/08 03:14:09;;;;;;;59.23;36.43;;;;;;;12.25;100.00;99866.88;5069091;28;20200;-60
2022/11/08 03:16:38;;;;;;;62.50;38.13;;;;;;;12.23;100.00;99858.25;5069105;28;20756;-61
2022/11/08 03:19:04;;;;;;;56.67;37.63;;;;;;;12.32;100.00;99865.78;5069018;28;20650;-60
2022/11/08 03:21:31;;;;;;;58.53;36.80;;;;;;;12.31;100.00;99861.47;5068811;28;20246;-58
2022/11/08 03:23:58;;;;;;;60.40;38.20;;;;;;;12.30;100.00;99861.53;5068908;28;20204;-57
2022/11/08 03:26:25;;;;;;;58.57;37.20;;;;;;;12.29;100.00;99855.47;5068921;28;20212;-58
2022/11/08 03:28:52;;;;;;;52.93;36.33;;;;;;;12.28;100.00;99868.53;5069014;28;20222;-57
2022/11/08 03:31:19;;;;;;;64.50;38.50;;;;;;;12.33;100.00;99867.47;5068802;28;20202;-57
2022/11/08 03:33:47;;;;;;;56.00;37.00;;;;;;;12.28;100.00;99865.94;5068804;28;20195;-57
2022/11/08 03:36:14;;;;;;;57.90;36.40;;;;;;;12.13;100.00;99868.97;5068979;28;20196;-57
2022/11/08 03:38:41;;;;;;;67.23;37.73;;;;;;;12.02;100.00;99869.28;5068818;28;20204;-57
2022/11/08 03:41:08;;;;;;;63.10;36.87;;;;;;;12.01;100.00;99867.59;5068716;28;20207;-59
2022/11/08 03:43:35;;;;;;;63.43;38.53;;;;;;;12.05;100.00;99871.81;5068913;28;20200;-58
2022/11/08 03:46:02;;;;;;;63.43;37.00;;;;;;;12.05;100.00;99869.22;5071361;28;20200;-59
2022/11/08 03:48:29;;;;;;;64.10;38.00;;;;;;;12.01;100.00;99859.78;5072035;28;20202;-60
2022/11/08 03:50:57;;;;;;;59.97;38.20;;;;;;;12.03;100.00;99859.75;5072499;28;20757;-60
2022/11/08 03:53:24;;;;;;;67.27;37.60;;;;;;;12.11;100.00;99856.00;5063704;28;20752;-60
2022/11/08 03:55:51;;;;;;;60.97;37.03;;;;;;;12.16;100.00;99848.09;5051886;28;20632;-60
2022/11/08 03:58:18;;;;;;;60.03;37.87;;;;;;;12.08;100.00;99840.47;5051718;28;20266;-58
2022/11/08 04:00:45;;;;;;;69.37;39.47;;;;;;;12.17;100.00;99845.44;5051191;28;20225;-60
2022/11/08 04:03:12;;;;;;;60.00;36.90;;;;;;;12.14;100.00;99840.31;5051726;28;20217;-60
2022/11/08 04:05:39;;;;;;;58.40;37.90;;;;;;;12.12;100.00;99841.25;5051737;28;20777;-60
2022/11/08 04:08:07;;;;;;;59.33;36.67;;;;;;;12.08;100.00;99842.22;5051980;28;20228;-61
2022/11/08 04:10:34;;;;;;;62.93;37.20;;;;;;;12.01;100.00;99841.56;5051658;28;20232;-59
2022/11/08 04:16:01;;;;;;;59.90;36.70;;;;;;;12.10;100.00;99851.69;5009401;28;20217;-60
2022/11/08 04:21:20;;;;;;;62.27;37.00;;;;;;;12.04;100.00;99849.28;5043466;28;20238;-58
2022/11/08 04:23:50;;;;;;;60.93;37.53;;;;;;;12.07;100.00;99848.38;5071112;28;20215;-57
2022/11/08 04:26:18;;;;;;;66.80;37.50;;;;;;;12.11;100.00;99861.22;5070699;28;20200;-56
2022/11/08 04:28:45;;;;;;;55.77;35.60;;;;;;;12.08;100.00;99856.09;5070231;28;20192;-57
2022/11/08 04:31:14;;;;;;;62.20;35.70;;;;;;;12.11;100.00;99856.00;5071205;28;20219;-57
2022/11/08 04:33:42;;;;;;;59.83;38.80;;;;;;;11.99;100.00;99856.38;5071539;28;20598;-59
2022/11/08 04:36:11;;;;;;;62.93;37.60;;;;;;;11.99;100.00;99856.38;5071430;28;20196;-57
2022/11/08 04:38:37;;;;;;;65.27;37.87;;;;;;;12.04;100.00;99857.09;5071430;28;20210;-58
2022/11/08 04:41:07;;;;;;;68.17;39.90;;;;;;;12.03;100.00;99857.16;5052558;28;20689;-57
2022/11/08 04:43:35;;;;;;;62.43;37.87;;;;;;;12.05;100.00;99865.75;5066353;28;20323;-56
2022/11/08 04:46:03;;;;;;;63.03;37.57;;;;;;;11.96;100.00;99861.69;5068656;28;20192;-57
2022/11/08 04:48:31;;;;;;;57.63;36.87;;;;;;;11.94;100.00;99856.53;5069061;28;20615;-56
2022/11/08 04:51:02;;;;;;;66.10;40.60;;;;;;;12.08;100.00;99869.09;5067495;28;20745;-56
2022/11/08 04:53:29;;;;;;;60.70;37.77;;;;;;;12.05;100.00;99868.38;5071322;28;20199;-58
2022/11/08 04:56:00;;;;;;;61.40;37.93;;;;;;;12.12;100.00;99868.13;5070539;28;20671;-57
2022/11/08 04:58:29;;;;;;;64.03;37.83;;;;;;;12.16;100.00;99880.16;5070662;28;20258;-57
2022/11/08 05:00:59;;;;;;;65.53;39.53;;;;;;;12.18;100.00;99891.38;5070603;28;20196;-57
2022/11/08 05:03:26;;;;;;;65.93;37.30;;;;;;;12.09;100.00;99877.75;5070636;28;20610;-59
2022/11/08 05:05:53;;;;;;;62.03;39.47;;;;;;;12.09;100.00;99881.22;5070683;28;20196;-60
2022/11/08 05:08:20;;;;;;;63.27;39.33;;;;;;;12.19;100.00;99895.66;5070519;28;20196;-60
2022/11/08 05:10:47;;;;;;;60.93;37.70;;;;;;;12.19;100.00;99890.47;5069471;28;20604;-60
2022/11/08 05:13:14;;;;;;;68.60;39.60;;;;;;;12.22;100.00;99892.97;5068879;28;20204;-60
2022/11/08 05:15:42;;;;;;;58.10;36.63;;;;;;;12.29;100.00;99901.47;5068476;28;20530;-60
2022/11/08 05:18:09;;;;;;;65.80;38.40;;;;;;;12.35;100.00;99902.13;5069778;28;20206;-56
2022/11/08 05:23:23;;;;;;;67.93;38.30;;;;;;;12.43;100.00;99898.44;5069350;28;20203;-56
2022/11/08 05:25:50;;;;;;;53.83;37.37;;;;;;;12.49;100.00;99903.47;5070732;28;20218;-57
2022/11/08 05:28:17;;;;;;;62.77;37.80;;;;;;;12.55;100.00;99903.28;5070311;28;20325;-56
2022/11/08 05:30:52;;;;;;;64.20;41.55;;;;;;;12.48;100.00;99901.75;5068570;28;20453;-56
2022/11/08 05:33:19;;;;;;;55.13;37.47;;;;;;;12.51;100.00;99901.69;5070361;28;20203;-57
2022/11/08 05:35:46;;;;;;;61.63;36.47;;;;;;;12.57;100.00;99904.09;5070361;28;20305;-56
2022/11/08 05:38:13;;;;;;;74.03;38.00;;;;;;;12.59;100.00;99907.50;5069844;28;20196;-57
2022/11/08 05:40:40;;;;;;;64.20;36.60;;;;;;;12.64;100.00;99903.84;5069831;28;20660;-58
2022/11/08 05:43:07;;;;;;;64.07;38.30;;;;;;;12.53;100.00;99902.47;5069696;28;20200;-57
2022/11/08 05:45:34;;;;;;;65.97;36.73;;;;;;;12.52;100.00;99888.63;5069554;28;20198;-58
2022/11/08 05:48:03;;;;;;;64.50;37.37;;;;;;;12.63;100.00;99906.53;5069316;28;20290;-58
2022/11/08 05:50:31;;;;;;;58.73;36.20;;;;;;;12.59;100.00;99902.28;5069936;28;20219;-58
2022/11/08 05:52:58;;;;;;;63.57;38.20;;;;;;;12.60;100.00;99914.41;5068773;28;20222;-58
2022/11/08 05:55:25;;;;;;;71.40;35.73;;;;;;;12.62;100.00;99915.22;5069706;28;20611;-57
2022/11/08 05:57:52;;;;;;;62.40;36.40;;;;;;;12.48;100.00;99901.75;5069827;28;20196;-58
2022/11/08 06:00:20;;;;;;;66.30;37.40;;;;;;;12.63;100.00;99916.94;5069829;28;20580;-61
2022/11/08 06:02:47;;;;;;;64.10;36.20;;;;;;;12.62;100.00;99923.03;5069798;28;20204;-62
2022/11/08 06:05:15;;;;;;;49.90;33.20;;;;;;;12.74;100.00;99920.06;5057875;28;20221;-62
2022/11/08 06:07:42;;;;;;;55.77;33.47;;;;;;;12.77;100.00;99919.09;5048976;28;20232;-61
2022/11/08 06:10:09;;;;;;;55.27;33.47;;;;;;;12.79;100.00;99920.75;5056091;28;20234;-62
2022/11/08 06:12:37;;;;;;;53.53;34.33;;;;;;;12.79;100.00;99933.78;5068472;28;20204;-62
2022/11/08 06:15:05;;;;;;;63.70;35.40;;;;;;;12.82;100.00;99928.47;5068902;28;20196;-62
2022/11/08 06:17:32;;;;;;;57.70;35.47;;;;;;;12.77;100.00;99925.16;5069686;28;20698;-61
2022/11/08 06:19:59;;;;;;;67.60;37.23;;;;;;;12.84;100.00;99931.03;5069219;28;20232;-62
2022/11/08 06:22:30;;;;;;;66.43;36.27;;;;;;;12.92;100.00;99924.69;5069114;28;20200;-62
2022/11/08 06:24:57;;;;;;;78.30;40.50;;;;;;;12.95;100.00;99927.19;5069585;28;20210;-62
2022/11/08 06:27:24;;;;;;;66.97;42.13;;;;;;;13.02;100.00;99933.91;5069477;28;20196;-62
2022/11/08 06:29:51;;;;;;;71.53;39.70;;;;;;;13.00;100.00;99943.50;5069838;28;20203;-61
2022/11/08 06:32:18;;;;;;;80.13;37.90;;;;;;;12.99;100.00;99940.97;5069408;28;20202;-62
2022/11/08 06:34:46;;;;;;;76.50;40.23;;;;;;;13.02;100.00;99944.31;5069577;28;20196;-62
2022/11/08 06:37:13;;;;;;;93.17;46.10;;;;;;;13.06;100.00;99945.94;5069413;28;20199;-62
2022/11/08 06:39:41;;;;;;;98.60;55.03;;;;;;;12.93;100.00;99936.81;5069584;28;20199;-58
2022/11/08 06:42:09;;;;;;;119.33;59.60;;;;;;;12.86;100.00;99940.53;5069329;28;20329;-58
2022/11/08 06:44:36;;;;;;;107.20;49.83;;;;;;;12.94;100.00;99941.13;5069597;28;20284;-57
2022/11/08 06:47:03;;;;;;;101.90;50.13;;;;;;;13.05;100.00;99940.78;5069391;28;20672;-58
2022/11/08 06:49:29;;;;;;;99.23;48.13;;;;;;;13.12;100.00;99938.81;5069299;28;20695;-58
2022/11/08 06:51:56;;;;;;;87.97;43.27;;;;;;;13.20;100.00;99952.50;5069036;28;20231;-57
2022/11/08 06:54:23;;;;;;;82.53;42.47;;;;;;;13.20;100.00;99945.53;5069485;28;20701;-57
2022/11/08 06:56:54;;;;;;;59.93;36.37;;;;;;;13.18;100.00;99951.69;5069441;28;20195;-61
2022/11/08 06:59:21;;;;;;;64.37;35.30;;;;;;;12.96;100.00;99930.66;5069568;28;20215;-61
2022/11/08 07:01:48;;;;;;;56.53;36.07;;;;;;;13.11;100.00;99951.00;5069183;28;20206;-61
2022/11/08 07:04:15;;;;;;;68.50;36.67;;;;;;;13.18;100.00;99949.94;5069250;28;20222;-57
2022/11/08 07:06:42;;;;;;;61.07;38.07;;;;;;;13.40;100.00;99948.34;5069129;28;20202;-57
2022/11/08 07:09:09;;;;;;;63.97;37.43;;;;;;;13.59;100.00;99948.56;5069280;28;20676;-58
2022/11/08 07:11:36;;;;;;;57.97;35.37;;;;;;;13.82;100.00;99947.75;5068957;28;20227;-58
2022/11/08 07:14:04;;;;;;;62.57;36.33;;;;;;;14.02;100.00;99947.03;5069037;28;20200;-58
2022/11/08 07:16:31;;;;;;;70.63;37.00;;;;;;;14.21;100.00;99955.09;5068978;28;20206;-58
2022/11/08 07:18:58;;;;;;;56.27;34.30;;;;;;;14.41;100.00;99958.69;5068756;28;20246;-58
2022/11/08 07:21:25;;;;;;;59.03;36.90;;;;;;;14.36;100.00;99952.75;5071751;28;20310;-58
2022/11/08 07:23:52;;;;;;;52.30;34.30;;;;;;;14.41;100.00;99950.84;5072728;28;20220;-62
2022/11/08 07:26:19;;;;;;;54.83;32.23;;;;;;;14.63;100.00;99955.25;5072838;28;20218;-61
2022/11/08 07:28:45;;;;;;;54.77;33.30;;;;;;;14.66;100.00;99960.38;5072620;28;20196;-62
2022/11/08 07:31:14;;;;;;;46.07;30.57;;;;;;;14.72;100.00;99947.06;5072277;28;20224;-66
2022/11/08 07:33:41;;;;;;;55.00;30.70;;;;;;;14.91;100.00;99958.50;5072432;28;20763;-65
2022/11/08 07:36:08;;;;;;;49.57;32.97;;;;;;;15.07;100.00;99953.50;5071618;28;20283;-65
2022/11/08 07:38:35;;;;;;;53.30;32.90;;;;;;;15.24;100.00;99957.13;5072244;28;20292;-64
2022/11/08 07:41:02;;;;;;;56.67;31.67;;;;;;;15.23;100.00;99952.84;5072197;28;20199;-64
2022/11/08 07:43:30;;;;;;;49.07;31.20;;;;;;;15.38;100.00;99959.19;5072260;28;20204;-65
2022/11/08 07:45:58;;;;;;;52.97;33.27;;;;;;;15.37;100.00;99954.03;5053875;28;20223;-65
2022/11/08 07:48:27;;;;;;;51.53;32.70;;;;;;;15.31;100.00;99952.53;5051959;28;20235;-66
2022/11/08 07:50:55;;;;;;;64.33;33.17;;;;;;;15.35;100.00;99950.66;5051896;28;20240;-65
2022/11/08 07:53:22;;;;;;;51.77;32.40;;;;;;;15.19;100.00;99953.88;5051722;28;20220;-65
2022/11/08 07:55:49;;;;;;;47.70;31.47;;;;;;;15.19;100.00;99953.03;5051352;28;20220;-65
2022/11/08 07:58:17;;;;;;;57.30;32.43;;;;;;;15.04;100.00;99945.78;5050247;28;20265;-65
2022/11/08 08:00:45;;;;;;;61.57;32.63;;;;;;;15.04;100.00;99957.09;5061787;28;20314;-62
2022/11/08 08:03:14;;;;;;;50.83;30.50;;;;;;;15.16;100.00;99945.28;5069909;28;20230;-65
2022/11/08 08:05:43;;;;;;;51.10;31.43;;;;;;;15.19;100.00;99951.25;5070416;28;20600;-65
2022/11/08 08:08:12;;;;;;;57.30;29.50;;;;;;;15.34;100.00;99948.94;5070533;28;20398;-63
2022/11/08 08:10:40;;;;;;;50.60;32.17;;;;;;;15.33;100.00;99949.84;5071949;28;20220;-64
2022/11/08 08:13:06;;;;;;;57.57;31.63;;;;;;;15.27;100.00;99949.16;5071571;28;20199;-66
2022/11/08 08:15:34;;;;;;;55.60;31.20;;;;;;;15.29;100.00;99951.72;5071818;28;20196;-66
2022/11/08 08:18:02;;;;;;;55.67;32.33;;;;;;;15.35;100.00;99950.66;5059715;28;20228;-66
2022/11/08 08:20:29;;;;;;;48.97;31.43;;;;;;;15.31;100.00;99954.28;5051089;28;20236;-59
2022/11/08 08:22:58;;;;;;;50.90;30.97;;;;;;;15.47;100.00;99955.34;5062287;28;20600;-59
2022/11/08 08:25:26;;;;;;;52.00;32.20;;;;;;;15.48;100.00;99950.03;5069930;28;20196;-59
2022/11/08 08:27:55;;;;;;;50.27;30.93;;;;;;;15.47;100.00;99947.50;5070585;28;20200;-59
2022/11/08 08:30:22;;;;;;;50.57;31.70;;;;;;;15.59;100.00;99955.72;5071249;28;20218;-59
2022/11/08 08:32:50;;;;;;;48.97;30.80;;;;;;;15.62;100.00;99954.75;5071514;28;20202;-59
2022/11/08 08:35:17;;;;;;;51.33;32.63;;;;;;;15.65;100.00;99952.00;5071418;28;20192;-59
2022/11/08 08:37:44;;;;;;;53.60;32.37;;;;;;;15.65;100.00;99952.00;5071197;28;20295;-61
2022/11/08 08:40:12;;;;;;;56.40;31.57;;;;;;;15.78;100.00;99950.56;5070998;28;20262;-59
2022/11/08 08:42:39;;;;;;;48.57;29.77;;;;;;;15.85;100.00;99953.75;5071319;28;20188;-59
2022/11/08 08:45:08;;;;;;;49.97;30.20;;;;;;;16.01;100.00;99953.94;5071084;28;20200;-58
2022/11/08 08:47:35;;;;;;;45.13;28.37;;;;;;;16.00;100.00;99952.25;5071153;28;20208;-65
2022/11/08 08:50:02;;;;;;;41.13;27.53;;;;;;;16.07;99.40;99946.66;5070970;28;20202;-65
2022/11/08 08:52:29;;;;;;;38.20;26.40;;;;;;;16.16;98.72;99951.47;5070755;28;20224;-65
2022/11/08 08:54:56;;;;;;;42.17;26.80;;;;;;;16.31;98.41;99949.94;5070881;28;20200;-65
2022/11/08 08:57:24;;;;;;;39.30;26.10;;;;;;;16.42;98.15;99952.94;5071197;28;20288;-60
2022/11/08 08:59:51;;;;;;;40.60;24.90;;;;;;;16.44;97.37;99945.00;5070914;28;20210;-59
2022/11/08 09:02:18;;;;;;;37.60;25.37;;;;;;;16.35;98.09;99946.28;5070819;28;20713;-59
2022/11/08 09:04:45;;;;;;;35.27;23.77;;;;;;;16.31;97.91;99947.34;5070798;28;20199;-59
2022/11/08 09:07:12;;;;;;;41.00;24.07;;;;;;;16.21;98.57;99943.44;5070623;28;20200;-59
2022/11/08 09:09:39;;;;;;;35.33;23.80;;;;;;;16.42;99.20;99941.59;5070792;28;20195;-60
2022/11/08 09:12:06;;;;;;;49.63;31.47;;;;;;;16.62;97.28;99950.25;5070363;28;20583;-58
2022/11/08 09:14:34;;;;;;;48.00;28.33;;;;;;;16.79;96.28;99946.88;5070599;28;20696;-66
2022/11/08 09:17:01;;;;;;;38.77;24.60;;;;;;;16.92;95.57;99941.91;5070460;28;20258;-66
2022/11/08 09:19:28;;;;;;;43.13;26.13;;;;;;;17.07;94.89;99935.88;5070351;28;20200;-59
2022/11/08 09:21:55;;;;;;;40.43;23.47;;;;;;;17.17;93.88;99952.03;5070230;28;20614;-59
2022/11/08 09:24:22;;;;;;;34.23;23.40;;;;;;;17.11;93.66;99942.69;5070368;28;20282;-59
2022/11/08 09:26:49;;;;;;;36.60;23.97;;;;;;;17.14;94.16;99945.19;5070505;28;20660;-59
2022/11/08 09:29:16;;;;;;;33.53;21.93;;;;;;;17.10;94.01;99948.00;5070397;28;20692;-59
2022/11/08 09:31:44;;;;;;;45.27;25.03;;;;;;;17.26;93.77;99947.19;5070184;28;20599;-59
2022/11/08 09:34:11;;;;;;;39.97;25.03;;;;;;;17.41;93.15;99951.66;5070140;28;20699;-60
2022/11/08 09:36:38;;;;;;;40.00;24.27;;;;;;;17.63;91.90;99943.59;5070044;28;20216;-60
2022/11/08 09:39:05;;;;;;;37.63;24.33;;;;;;;17.75;91.52;99952.63;5070016;28;20287;-59
2022/11/08 09:42:25;;;;;;;30.88;22.05;;;;;;;18.01;89.61;99946.03;5070159;28;20196;-59
2022/11/08 09:45:15;;;;;;;40.77;23.57;;;;;;;17.98;89.86;99935.69;5011188;28;20203;-59
2022/11/08 09:47:47;;;;;;;37.43;22.60;;;;;;;18.03;89.89;99938.94;5070275;28;20222;-60
2022/11/08 09:50:20;;;;;;;36.95;24.17;;;;;;;18.09;90.03;99935.97;5070040;28;20723;-59
2022/11/08 09:52:51;;;;;;;44.20;24.67;;;;;;;18.25;89.40;99936.00;5069755;28;20306;-66
2022/11/08 09:55:26;;;;;;;36.17;24.52;;;;;;;18.38;89.08;99939.69;5069795;28;20200;-66
2022/11/08 09:58:05;;;;;;;41.25;25.10;;;;;;;18.47;88.63;99934.75;5070139;28;20195;-60
2022/11/08 10:00:34;;;;;;;39.15;24.38;;;;;;;18.57;87.94;99929.84;5070003;28;20199;-60
2022/11/08 10:03:03;;;;;;;44.83;23.55;;;;;;;18.68;87.45;99934.53;5069884;28;20618;-60
2022/11/08 10:05:39;;;;;;;33.47;23.13;;;;;;;18.62;86.94;99933.13;5069773;28;20192;-60
2022/11/08 10:08:11;;;;;;;36.70;24.10;;;;;;;18.55;87.30;99931.69;5069654;28;20199;-60
2022/11/08 10:11:04;;;;;;;37.58;23.65;;;;;;;18.49;87.49;99926.78;5069748;28;20203;-60
2022/11/08 10:13:39;;;;;;;33.78;23.23;;;;;;;18.42;87.36;99920.16;5069645;28;20199;-58
2022/11/08 10:16:13;;;;;;;43.67;23.17;;;;;;;18.58;87.53;99928.09;5069498;28;20827;-59
2022/11/08 10:19:09;;;;;;;34.15;22.52;;;;;;;18.52;87.83;99927.47;5069630;28;20205;-60
2022/11/08 10:21:54;;;;;;;34.58;22.65;;;;;;;18.49;88.17;99922.38;5067437;28;20664;-66
2022/11/08 10:24:31;;;;;;;37.88;24.20;;;;;;;18.48;87.98;99925.94;5069387;28;20879;-66
2022/11/08 10:26:59;;;;;;;34.65;23.33;;;;;;;18.34;88.38;99923.22;5067644;28;20192;-65
2022/11/08 10:29:32;;;;;;;35.08;22.63;;;;;;;18.40;88.12;99922.00;5048656;28;20734;-66
2022/11/08 10:32:05;;;;;;;35.63;23.67;;;;;;;18.06;89.41;99923.81;5049296;28;20618;-66
2022/11/08 10:34:41;;;;;;;34.17;23.35;;;;;;;18.20;89.33;99906.47;5049359;28;20242;-66
2022/11/08 10:37:14;;;;;;;38.08;22.67;;;;;;;18.19;89.23;99910.88;5048980;28;20220;-66
2022/11/08 10:39:50;;;;;;;30.60;22.20;;;;;;;18.18;89.38;99914.44;5049045;28;20314;-65
2022/11/08 10:42:25;;;;;;;28.45;21.98;;;;;;;18.19;89.21;99912.66;5049082;28;20708;-66
2022/11/08 10:44:53;;;;;;;37.00;22.58;;;;;;;18.19;89.49;99908.25;5048507;28;20306;-66
2022/11/08 10:47:25;;;;;;;38.40;22.73;;;;;;;18.22;89.09;99905.47;5048956;28;20634;-59
2022/11/08 10:49:53;;;;;;;39.90;23.17;;;;;;;18.12;89.67;99906.91;5065208;28;20227;-60
2022/11/08 10:52:31;;;;;;;34.67;22.30;;;;;;;18.13;89.50;99898.09;5068505;28;20664;-60
2022/11/08 10:54:59;;;;;;;35.85;22.25;;;;;;;18.17;89.50;99890.91;5071390;28;20233;-61
2022/11/08 10:57:38;;;;;;;40.03;24.10;;;;;;;18.16;89.38;99886.59;5073317;28;20207;-60
2022/11/08 11:00:26;;;;;;;35.35;23.80;;;;;;;18.17;89.22;99888.28;5073890;28;20577;-68
2022/11/08 11:02:54;;;;;;;44.30;24.58;;;;;;;18.01;89.21;99877.72;5073202;28;20253;-68
2022/11/08 11:05:27;;;;;;;39.15;23.65;;;;;;;17.96;90.16;99879.75;5073636;28;20210;-58
2022/11/08 11:08:02;;;;;;;37.83;23.10;;;;;;;17.82;90.90;99882.28;5073835;28;20665;-58
2022/11/08 11:10:31;;;;;;;31.63;23.50;;;;;;;17.79;90.46;99872.78;5073670;28;20196;-60
2022/11/08 11:13:04;;;;;;;35.58;23.17;;;;;;;17.86;90.43;99870.66;5073366;28;20310;-60
2022/11/08 11:15:35;;;;;;;39.55;23.33;;;;;;;17.76;90.56;99871.16;5072795;28;20195;-59
2022/11/08 11:18:03;;;;;;;38.50;23.60;;;;;;;17.75;91.24;99866.81;5065382;28;20208;-60
2022/11/08 11:20:31;;;;;;;39.28;23.60;;;;;;;17.78;90.89;99868.44;5054680;28;20238;-60
2022/11/08 11:23:00;;;;;;;33.63;22.55;;;;;;;17.81;90.65;99859.56;5051640;28;20200;-60
2022/11/08 11:25:27;;;;;;;43.45;24.25;;;;;;;17.73;91.04;99863.44;5052683;28;20196;-60
2022/11/08 11:27:57;;;;;;;33.73;22.33;;;;;;;17.60;91.75;99866.75;5052722;28;20231;-60
2022/11/08 11:30:31;;;;;;;35.93;22.93;;;;;;;17.68;91.51;99864.63;5057115;28;20652;-60
2022/11/08 11:33:19;;;;;;;40.28;23.63;;;;;;;17.71;91.30;99865.31;5068805;28;20251;-60
2022/11/08 11:35:50;;;;;;;36.03;24.10;;;;;;;17.74;91.46;99851.16;5070371;28;20500;-59
2022/11/08 11:38:27;;;;;;;45.38;23.65;;;;;;;17.83;90.93;99861.19;5069240;28;20232;-59